sensor_id;sensor_type;location;lat;lon;timestamp;P1;durP1;ratioP1;P2;durP2;ratioP2
55220;SDS011;41089;51.448;6.604;2024-01-30T00:04:33;11.32;;;8.63;;
55220;SDS011;41089;51.448;6.604;2024-01-30T00:10:34;10.30;;;7.93;;
55220;SDS011;41089;51.448;6.604;2024-01-30T00:16:35;10.48;;;7.45;;
55220;SDS011;41089;51.448;6.604;2024-01-30T00:22:36;11.82;;;8.48;;
55220;SDS011;41089;51.448;6.604;2024-01-30T00:28:36;11.20;;;8.97;;
55220;SDS011;41089;51.448;6.604;2024-01-30T00:34:41;12.43;;;8.52;;
55220;SDS011;41089;51.448;6.604;2024-01-30T00:40:41;12.38;;;8.73;;
55220;SDS011;41089;51.448;6.604;2024-01-30T00:46:42;13.73;;;9.57;;
55220;SDS011;41089;51.448;6.604;2024-01-30T00:52:42;11.85;;;8.68;;
55220;SDS011;41089;51.448;6.604;2024-01-30T00:58:44;13.52;;;8.88;;
55220;SDS011;41089;51.448;6.604;2024-01-30T01:04:45;13.43;;;8.55;;
55220;SDS011;41089;51.448;6.604;2024-01-30T01:10:45;15.55;;;9.57;;
55220;SDS011;41089;51.448;6.604;2024-01-30T01:16:46;12.07;;;9.07;;
55220;SDS011;41089;51.448;6.604;2024-01-30T01:22:46;13.73;;;9.13;;
55220;SDS011;41089;51.448;6.604;2024-01-30T01:28:46;11.65;;;8.82;;
55220;SDS011;41089;51.448;6.604;2024-01-30T01:34:47;11.97;;;9.03;;
55220;SDS011;41089;51.448;6.604;2024-01-30T01:40:47;13.27;;;8.73;;
55220;SDS011;41089;51.448;6.604;2024-01-30T01:46:47;14.50;;;9.20;;
55220;SDS011;41089;51.448;6.604;2024-01-30T01:52:48;11.98;;;9.00;;
55220;SDS011;41089;51.448;6.604;2024-01-30T01:58:49;13.40;;;9.05;;
55220;SDS011;41089;51.448;6.604;2024-01-30T02:04:49;11.73;;;9.20;;
55220;SDS011;41089;51.448;6.604;2024-01-30T02:10:50;13.00;;;9.35;;
55220;SDS011;41089;51.448;6.604;2024-01-30T02:16:51;10.48;;;8.75;;
55220;SDS011;41089;51.448;6.604;2024-01-30T02:22:52;13.23;;;9.70;;
55220;SDS011;41089;51.448;6.604;2024-01-30T02:28:53;14.00;;;10.02;;
55220;SDS011;41089;51.448;6.604;2024-01-30T02:34:53;11.63;;;8.82;;
55220;SDS011;41089;51.448;6.604;2024-01-30T02:40:55;11.67;;;9.57;;
55220;SDS011;41089;51.448;6.604;2024-01-30T02:46:56;13.68;;;9.45;;
55220;SDS011;41089;51.448;6.604;2024-01-30T02:52:56;16.88;;;10.15;;
55220;SDS011;41089;51.448;6.604;2024-01-30T02:58:58;13.17;;;9.93;;
55220;SDS011;41089;51.448;6.604;2024-01-30T03:04:59;13.82;;;9.82;;
55220;SDS011;41089;51.448;6.604;2024-01-30T03:10:59;13.52;;;8.85;;
55220;SDS011;41089;51.448;6.604;2024-01-30T03:17:00;18.40;;;9.65;;
55220;SDS011;41089;51.448;6.604;2024-01-30T03:23:00;13.65;;;10.30;;
55220;SDS011;41089;51.448;6.604;2024-01-30T03:29:01;14.20;;;9.53;;
55220;SDS011;41089;51.448;6.604;2024-01-30T03:35:01;13.63;;;9.38;;
55220;SDS011;41089;51.448;6.604;2024-01-30T03:41:02;11.15;;;8.52;;
55220;SDS011;41089;51.448;6.604;2024-01-30T03:47:02;12.68;;;9.32;;
55220;SDS011;41089;51.448;6.604;2024-01-30T03:53:03;11.45;;;9.13;;
55220;SDS011;41089;51.448;6.604;2024-01-30T03:59:04;11.50;;;9.70;;
55220;SDS011;41089;51.448;6.604;2024-01-30T04:05:05;12.32;;;9.10;;
55220;SDS011;41089;51.448;6.604;2024-01-30T04:11:05;13.70;;;10.02;;
55220;SDS011;41089;51.448;6.604;2024-01-30T04:17:06;12.93;;;9.80;;
55220;SDS011;41089;51.448;6.604;2024-01-30T04:23:06;11.27;;;9.35;;
55220;SDS011;41089;51.448;6.604;2024-01-30T04:29:07;9.63;;;8.63;;
55220;SDS011;41089;51.448;6.604;2024-01-30T04:35:08;12.82;;;8.40;;
55220;SDS011;41089;51.448;6.604;2024-01-30T04:41:08;11.48;;;9.65;;
55220;SDS011;41089;51.448;6.604;2024-01-30T04:47:08;12.97;;;9.17;;
55220;SDS011;41089;51.448;6.604;2024-01-30T04:53:11;10.50;;;8.50;;
55220;SDS011;41089;51.448;6.604;2024-01-30T04:59:11;13.53;;;9.00;;
55220;SDS011;41089;51.448;6.604;2024-01-30T05:05:12;10.80;;;9.18;;
55220;SDS011;41089;51.448;6.604;2024-01-30T05:11:13;13.50;;;8.55;;
55220;SDS011;41089;51.448;6.604;2024-01-30T05:17:14;11.63;;;8.35;;
55220;SDS011;41089;51.448;6.604;2024-01-30T05:23:14;13.53;;;8.73;;
55220;SDS011;41089;51.448;6.604;2024-01-30T05:29:14;12.98;;;8.90;;
55220;SDS011;41089;51.448;6.604;2024-01-30T05:35:15;11.80;;;9.77;;
55220;SDS011;41089;51.448;6.604;2024-01-30T05:41:16;11.07;;;8.60;;
55220;SDS011;41089;51.448;6.604;2024-01-30T05:47:16;9.80;;;8.02;;
55220;SDS011;41089;51.448;6.604;2024-01-30T05:53:17;9.70;;;8.30;;
55220;SDS011;41089;51.448;6.604;2024-01-30T05:59:17;11.17;;;8.93;;
55220;SDS011;41089;51.448;6.604;2024-01-30T06:05:17;11.23;;;8.98;;
55220;SDS011;41089;51.448;6.604;2024-01-30T06:11:18;12.47;;;8.67;;
55220;SDS011;41089;51.448;6.604;2024-01-30T06:17:18;12.07;;;8.55;;
55220;SDS011;41089;51.448;6.604;2024-01-30T06:23:19;14.77;;;9.30;;
55220;SDS011;41089;51.448;6.604;2024-01-30T06:29:20;12.43;;;8.73;;
55220;SDS011;41089;51.448;6.604;2024-01-30T06:35:21;13.10;;;8.53;;
55220;SDS011;41089;51.448;6.604;2024-01-30T06:41:22;11.13;;;8.25;;
55220;SDS011;41089;51.448;6.604;2024-01-30T06:47:23;14.25;;;8.60;;
55220;SDS011;41089;51.448;6.604;2024-01-30T06:53:24;11.83;;;8.07;;
55220;SDS011;41089;51.448;6.604;2024-01-30T06:59:26;9.55;;;8.60;;
55220;SDS011;41089;51.448;6.604;2024-01-30T07:05:26;12.95;;;8.60;;
55220;SDS011;41089;51.448;6.604;2024-01-30T07:11:26;11.75;;;8.23;;
55220;SDS011;41089;51.448;6.604;2024-01-30T07:17:28;11.90;;;8.13;;
55220;SDS011;41089;51.448;6.604;2024-01-30T07:23:30;10.20;;;8.82;;
55220;SDS011;41089;51.448;6.604;2024-01-30T07:29:31;13.43;;;8.13;;
55220;SDS011;41089;51.448;6.604;2024-01-30T07:35:31;15.20;;;8.35;;
55220;SDS011;41089;51.448;6.604;2024-01-30T07:41:31;13.05;;;8.40;;
55220;SDS011;41089;51.448;6.604;2024-01-30T07:47:33;13.70;;;8.85;;
55220;SDS011;41089;51.448;6.604;2024-01-30T07:53:35;10.82;;;7.93;;
55220;SDS011;41089;51.448;6.604;2024-01-30T07:59:35;11.52;;;7.53;;
55220;SDS011;41089;51.448;6.604;2024-01-30T08:05:35;17.08;;;9.20;;
55220;SDS011;41089;51.448;6.604;2024-01-30T08:11:36;11.07;;;8.13;;
55220;SDS011;41089;51.448;6.604;2024-01-30T08:17:36;11.10;;;8.68;;
55220;SDS011;41089;51.448;6.604;2024-01-30T08:23:40;12.30;;;8.20;;
55220;SDS011;41089;51.448;6.604;2024-01-30T08:29:40;12.95;;;8.88;;
55220;SDS011;41089;51.448;6.604;2024-01-30T08:35:41;12.77;;;8.52;;
55220;SDS011;41089;51.448;6.604;2024-01-30T08:41:41;10.37;;;7.90;;
55220;SDS011;41089;51.448;6.604;2024-01-30T08:47:42;11.73;;;8.43;;
55220;SDS011;41089;51.448;6.604;2024-01-30T08:53:42;16.20;;;9.00;;
55220;SDS011;41089;51.448;6.604;2024-01-30T08:59:43;13.77;;;9.53;;
55220;SDS011;41089;51.448;6.604;2024-01-30T09:05:45;13.23;;;8.88;;
55220;SDS011;41089;51.448;6.604;2024-01-30T09:11:46;14.97;;;9.03;;
55220;SDS011;41089;51.448;6.604;2024-01-30T09:17:46;10.85;;;8.93;;
55220;SDS011;41089;51.448;6.604;2024-01-30T09:23:47;18.30;;;9.03;;
55220;SDS011;41089;51.448;6.604;2024-01-30T09:29:47;12.20;;;9.68;;
55220;SDS011;41089;51.448;6.604;2024-01-30T09:35:48;18.43;;;9.40;;
55220;SDS011;41089;51.448;6.604;2024-01-30T09:41:48;17.13;;;9.07;;
55220;SDS011;41089;51.448;6.604;2024-01-30T09:47:50;13.07;;;10.00;;
55220;SDS011;41089;51.448;6.604;2024-01-30T09:53:51;14.13;;;8.48;;
55220;SDS011;41089;51.448;6.604;2024-01-30T09:59:52;13.85;;;10.23;;
55220;SDS011;41089;51.448;6.604;2024-01-30T10:05:54;10.65;;;8.68;;
55220;SDS011;41089;51.448;6.604;2024-01-30T10:11:55;14.20;;;9.60;;
55220;SDS011;41089;51.448;6.604;2024-01-30T10:17:55;14.77;;;9.80;;
55220;SDS011;41089;51.448;6.604;2024-01-30T10:23:56;13.23;;;8.90;;
55220;SDS011;41089;51.448;6.604;2024-01-30T10:29:56;12.07;;;8.18;;
55220;SDS011;41089;51.448;6.604;2024-01-30T10:36:00;9.98;;;7.60;;
55220;SDS011;41089;51.448;6.604;2024-01-30T10:42:03;12.90;;;8.13;;
55220;SDS011;41089;51.448;6.604;2024-01-30T10:48:06;11.80;;;8.23;;
55220;SDS011;41089;51.448;6.604;2024-01-30T10:54:08;11.32;;;9.30;;
55220;SDS011;41089;51.448;6.604;2024-01-30T11:00:14;12.68;;;8.25;;
55220;SDS011;41089;51.448;6.604;2024-01-30T11:06:15;10.82;;;7.80;;
55220;SDS011;41089;51.448;6.604;2024-01-30T11:12:22;11.25;;;8.05;;
55220;SDS011;41089;51.448;6.604;2024-01-30T11:18:24;14.73;;;8.13;;
55220;SDS011;41089;51.448;6.604;2024-01-30T11:24:25;14.52;;;8.15;;
55220;SDS011;41089;51.448;6.604;2024-01-30T11:30:27;13.30;;;8.02;;
55220;SDS011;41089;51.448;6.604;2024-01-30T11:36:28;14.13;;;9.10;;
55220;SDS011;41089;51.448;6.604;2024-01-30T11:42:29;14.23;;;8.32;;
55220;SDS011;41089;51.448;6.604;2024-01-30T11:48:30;12.93;;;8.43;;
55220;SDS011;41089;51.448;6.604;2024-01-30T11:54:30;11.50;;;8.00;;
55220;SDS011;41089;51.448;6.604;2024-01-30T12:00:32;12.73;;;7.97;;
55220;SDS011;41089;51.448;6.604;2024-01-30T12:06:33;16.05;;;7.47;;
55220;SDS011;41089;51.448;6.604;2024-01-30T12:12:34;12.73;;;7.93;;
55220;SDS011;41089;51.448;6.604;2024-01-30T12:18:34;14.23;;;7.47;;
55220;SDS011;41089;51.448;6.604;2024-01-30T12:24:35;14.47;;;8.17;;
55220;SDS011;41089;51.448;6.604;2024-01-30T12:30:36;11.85;;;8.00;;
55220;SDS011;41089;51.448;6.604;2024-01-30T12:36:37;13.35;;;7.50;;
55220;SDS011;41089;51.448;6.604;2024-01-30T12:42:38;13.83;;;8.47;;
55220;SDS011;41089;51.448;6.604;2024-01-30T12:48:39;15.85;;;8.20;;
55220;SDS011;41089;51.448;6.604;2024-01-30T12:54:39;14.80;;;8.57;;
55220;SDS011;41089;51.448;6.604;2024-01-30T13:00:40;16.70;;;7.70;;
55220;SDS011;41089;51.448;6.604;2024-01-30T13:06:40;12.20;;;8.05;;
55220;SDS011;41089;51.448;6.604;2024-01-30T13:12:40;11.40;;;6.10;;
55220;SDS011;41089;51.448;6.604;2024-01-30T13:18:41;12.75;;;7.03;;
55220;SDS011;41089;51.448;6.604;2024-01-30T13:24:41;12.90;;;6.60;;
55220;SDS011;41089;51.448;6.604;2024-01-30T13:30:42;16.25;;;7.28;;
55220;SDS011;41089;51.448;6.604;2024-01-30T13:36:42;10.30;;;6.53;;
55220;SDS011;41089;51.448;6.604;2024-01-30T13:42:43;8.73;;;7.05;;
55220;SDS011;41089;51.448;6.604;2024-01-30T13:48:43;14.95;;;7.57;;
55220;SDS011;41089;51.448;6.604;2024-01-30T13:54:44;11.30;;;6.45;;
55220;SDS011;41089;51.448;6.604;2024-01-30T14:00:44;15.10;;;7.20;;
55220;SDS011;41089;51.448;6.604;2024-01-30T14:06:46;10.90;;;6.47;;
55220;SDS011;41089;51.448;6.604;2024-01-30T14:12:46;11.65;;;6.28;;
55220;SDS011;41089;51.448;6.604;2024-01-30T14:18:48;11.68;;;6.30;;
55220;SDS011;41089;51.448;6.604;2024-01-30T14:24:48;15.57;;;6.93;;
55220;SDS011;41089;51.448;6.604;2024-01-30T14:30:48;7.15;;;3.83;;
55220;SDS011;41089;51.448;6.604;2024-01-30T14:36:49;7.73;;;3.20;;
55220;SDS011;41089;51.448;6.604;2024-01-30T14:42:49;7.50;;;2.88;;
55220;SDS011;41089;51.448;6.604;2024-01-30T14:48:50;5.93;;;3.10;;
55220;SDS011;41089;51.448;6.604;2024-01-30T14:54:51;5.70;;;3.25;;
55220;SDS011;41089;51.448;6.604;2024-01-30T15:06:52;6.70;;;2.38;;
55220;SDS011;41089;51.448;6.604;2024-01-30T15:12:53;3.67;;;1.60;;
55220;SDS011;41089;51.448;6.604;2024-01-30T15:18:54;4.17;;;1.83;;
55220;SDS011;41089;51.448;6.604;2024-01-30T15:24:54;4.25;;;1.50;;
55220;SDS011;41089;51.448;6.604;2024-01-30T15:30:55;2.60;;;1.40;;
55220;SDS011;41089;51.448;6.604;2024-01-30T15:36:57;7.35;;;1.30;;
55220;SDS011;41089;51.448;6.604;2024-01-30T15:42:57;3.35;;;1.20;;
55220;SDS011;41089;51.448;6.604;2024-01-30T15:48:58;4.90;;;1.67;;
55220;SDS011;41089;51.448;6.604;2024-01-30T15:54:59;2.65;;;1.10;;
55220;SDS011;41089;51.448;6.604;2024-01-30T16:00:59;1.67;;;1.20;;
55220;SDS011;41089;51.448;6.604;2024-01-30T16:07:00;3.80;;;1.10;;
55220;SDS011;41089;51.448;6.604;2024-01-30T16:13:00;4.83;;;1.53;;
55220;SDS011;41089;51.448;6.604;2024-01-30T16:19:01;5.55;;;1.50;;
55220;SDS011;41089;51.448;6.604;2024-01-30T16:25:02;4.50;;;1.30;;
55220;SDS011;41089;51.448;6.604;2024-01-30T16:31:05;5.90;;;1.20;;
55220;SDS011;41089;51.448;6.604;2024-01-30T16:37:06;3.78;;;1.30;;
55220;SDS011;41089;51.448;6.604;2024-01-30T16:43:06;2.77;;;1.40;;
55220;SDS011;41089;51.448;6.604;2024-01-30T16:49:08;1.77;;;0.95;;
55220;SDS011;41089;51.448;6.604;2024-01-30T16:55:09;1.35;;;1.25;;
55220;SDS011;41089;51.448;6.604;2024-01-30T17:01:09;5.10;;;1.87;;
55220;SDS011;41089;51.448;6.604;2024-01-30T17:07:09;6.93;;;1.75;;
55220;SDS011;41089;51.448;6.604;2024-01-30T17:13:12;4.85;;;2.05;;
55220;SDS011;41089;51.448;6.604;2024-01-30T17:19:12;5.35;;;3.30;;
55220;SDS011;41089;51.448;6.604;2024-01-30T17:25:15;5.75;;;3.17;;
55220;SDS011;41089;51.448;6.604;2024-01-30T17:31:16;3.87;;;2.77;;
55220;SDS011;41089;51.448;6.604;2024-01-30T17:37:17;5.15;;;2.85;;
55220;SDS011;41089;51.448;6.604;2024-01-30T17:43:17;5.03;;;2.67;;
55220;SDS011;41089;51.448;6.604;2024-01-30T17:49:18;4.18;;;3.10;;
55220;SDS011;41089;51.448;6.604;2024-01-30T17:55:18;4.60;;;3.10;;
55220;SDS011;41089;51.448;6.604;2024-01-30T18:01:19;3.38;;;2.90;;
55220;SDS011;41089;51.448;6.604;2024-01-30T18:07:20;4.97;;;3.00;;
55220;SDS011;41089;51.448;6.604;2024-01-30T18:13:20;3.42;;;3.10;;
55220;SDS011;41089;51.448;6.604;2024-01-30T18:19:21;3.67;;;3.13;;
55220;SDS011;41089;51.448;6.604;2024-01-30T18:25:21;3.33;;;2.93;;
55220;SDS011;41089;51.448;6.604;2024-01-30T18:31:22;3.95;;;3.42;;
55220;SDS011;41089;51.448;6.604;2024-01-30T18:37:23;5.32;;;3.35;;
55220;SDS011;41089;51.448;6.604;2024-01-30T18:43:23;5.70;;;3.70;;
55220;SDS011;41089;51.448;6.604;2024-01-30T18:49:24;6.57;;;4.13;;
55220;SDS011;41089;51.448;6.604;2024-01-30T18:55:24;5.40;;;4.55;;
55220;SDS011;41089;51.448;6.604;2024-01-30T19:01:25;6.97;;;4.50;;
55220;SDS011;41089;51.448;6.604;2024-01-30T19:07:26;5.45;;;4.75;;
55220;SDS011;41089;51.448;6.604;2024-01-30T19:13:26;6.57;;;5.20;;
55220;SDS011;41089;51.448;6.604;2024-01-30T19:19:26;8.77;;;5.57;;
55220;SDS011;41089;51.448;6.604;2024-01-30T19:25:27;6.73;;;5.70;;
55220;SDS011;41089;51.448;6.604;2024-01-30T19:31:29;8.65;;;6.43;;
55220;SDS011;41089;51.448;6.604;2024-01-30T19:37:30;7.97;;;7.18;;
55220;SDS011;41089;51.448;6.604;2024-01-30T19:43:32;8.88;;;7.97;;
55220;SDS011;41089;51.448;6.604;2024-01-30T19:49:33;10.18;;;8.48;;
55220;SDS011;41089;51.448;6.604;2024-01-30T19:55:35;9.40;;;8.40;;
55220;SDS011;41089;51.448;6.604;2024-01-30T20:01:35;11.15;;;8.10;;
55220;SDS011;41089;51.448;6.604;2024-01-30T20:07:36;8.77;;;7.10;;
55220;SDS011;41089;51.448;6.604;2024-01-30T20:13:36;10.53;;;8.70;;
55220;SDS011;41089;51.448;6.604;2024-01-30T20:19:40;11.75;;;8.50;;
55220;SDS011;41089;51.448;6.604;2024-01-30T20:25:43;11.57;;;9.82;;
55220;SDS011;41089;51.448;6.604;2024-01-30T20:31:44;11.43;;;10.23;;
55220;SDS011;41089;51.448;6.604;2024-01-30T20:37:45;14.15;;;10.88;;
55220;SDS011;41089;51.448;6.604;2024-01-30T20:43:47;13.15;;;10.27;;
55220;SDS011;41089;51.448;6.604;2024-01-30T20:49:48;11.98;;;10.27;;
55220;SDS011;41089;51.448;6.604;2024-01-30T20:55:49;14.20;;;10.20;;
55220;SDS011;41089;51.448;6.604;2024-01-30T21:01:49;14.20;;;10.17;;
55220;SDS011;41089;51.448;6.604;2024-01-30T21:07:50;11.90;;;10.43;;
55220;SDS011;41089;51.448;6.604;2024-01-30T21:13:51;13.45;;;11.82;;
55220;SDS011;41089;51.448;6.604;2024-01-30T21:19:53;14.60;;;11.93;;
55220;SDS011;41089;51.448;6.604;2024-01-30T21:25:53;17.60;;;13.20;;
55220;SDS011;41089;51.448;6.604;2024-01-30T21:31:53;13.33;;;11.73;;
55220;SDS011;41089;51.448;6.604;2024-01-30T21:37:54;17.77;;;12.60;;
55220;SDS011;41089;51.448;6.604;2024-01-30T21:43:54;15.80;;;12.70;;
55220;SDS011;41089;51.448;6.604;2024-01-30T21:49:55;16.58;;;14.43;;
55220;SDS011;41089;51.448;6.604;2024-01-30T21:55:55;18.48;;;16.63;;
55220;SDS011;41089;51.448;6.604;2024-01-30T22:01:55;21.13;;;15.70;;
55220;SDS011;41089;51.448;6.604;2024-01-30T22:07:57;20.00;;;14.80;;
55220;SDS011;41089;51.448;6.604;2024-01-30T22:13:58;18.75;;;15.30;;
55220;SDS011;41089;51.448;6.604;2024-01-30T22:19:59;20.42;;;16.52;;
55220;SDS011;41089;51.448;6.604;2024-01-30T22:25:59;20.52;;;16.30;;
55220;SDS011;41089;51.448;6.604;2024-01-30T22:32:00;19.65;;;15.95;;
55220;SDS011;41089;51.448;6.604;2024-01-30T22:38:02;23.33;;;18.48;;
55220;SDS011;41089;51.448;6.604;2024-01-30T22:44:07;26.90;;;19.02;;
55220;SDS011;41089;51.448;6.604;2024-01-30T22:50:07;21.33;;;17.13;;
55220;SDS011;41089;51.448;6.604;2024-01-30T22:56:08;20.80;;;17.63;;
55220;SDS011;41089;51.448;6.604;2024-01-30T23:02:08;24.42;;;19.70;;
55220;SDS011;41089;51.448;6.604;2024-01-30T23:08:09;24.97;;;19.30;;
55220;SDS011;41089;51.448;6.604;2024-01-30T23:14:09;29.00;;;21.37;;
55220;SDS011;41089;51.448;6.604;2024-01-30T23:20:10;24.85;;;20.17;;
55220;SDS011;41089;51.448;6.604;2024-01-30T23:26:10;28.25;;;22.15;;
55220;SDS011;41089;51.448;6.604;2024-01-30T23:32:11;21.67;;;17.70;;
55220;SDS011;41089;51.448;6.604;2024-01-30T23:38:11;23.33;;;18.52;;
55220;SDS011;41089;51.448;6.604;2024-01-30T23:44:12;23.90;;;17.27;;
55220;SDS011;41089;51.448;6.604;2024-01-30T23:50:13;21.60;;;15.90;;
55220;SDS011;41089;51.448;6.604;2024-01-30T23:56:14;17.37;;;14.70;;
